Time;durP1;ratioP1;P1;durP2;ratioP2;P2;SDS_P1;SDS_P2;PMS_P1;PMS_P2;Temp;Humidity;BMP_temperature;BMP_pressure;BME280_temperature;BME280_humidity;BME280_pressure;Samples;Min_cycle;Max_cycle;Signal;HPM_P1;HPM_P2
2022/05/25 00:02:21;;;;;;;0.00;0.00;;;10.00;99.90;;;;;;4888502;29;20056;-68
2022/05/25 00:04:47;;;;;;;0.00;0.00;;;10.00;99.90;;;;;;4887998;29;20044;-68
2022/05/25 00:07:13;;;;;;;0.00;0.00;;;10.00;99.90;;;;;;4888087;29;20511;-68
2022/05/25 00:09:39;;;;;;;0.00;0.00;;;10.00;99.90;;;;;;4888380;29;20049;-69
2022/05/25 00:12:06;;;;;;;0.00;0.00;;;9.90;99.90;;;;;;4888473;29;20052;-68
2022/05/25 00:14:32;;;;;;;0.20;0.20;;;9.90;99.90;;;;;;4871296;29;20055;-68
2022/05/25 00:16:58;;;;;;;0.00;0.00;;;9.90;99.90;;;;;;4887807;29;20045;-68
2022/05/25 00:22:09;;;;;;;0.00;0.00;;;10.20;99.90;;;;;;4887895;29;20047;-68
2022/05/25 00:24:35;;;;;;;0.00;0.00;;;9.90;99.90;;;;;;4871325;29;20053;-68
2022/05/25 00:27:01;;;;;;;0.00;0.00;;;9.90;99.90;;;;;;4888185;29;20120;-68
2022/05/25 00:29:26;;;;;;;0.00;0.00;;;9.80;99.90;;;;;;4887882;29;20056;-68
2022/05/25 00:31:52;;;;;;;0.00;0.00;;;9.80;99.90;;;;;;4887860;29;20128;-68
2022/05/25 00:34:18;;;;;;;0.00;0.00;;;9.80;99.90;;;;;;4870164;29;20044;-69
2022/05/25 00:36:44;;;;;;;0.00;0.00;;;9.80;99.90;;;;;;4888359;29;20045;-68
2022/05/25 00:39:10;;;;;;;0.00;0.00;;;9.80;99.90;;;;;;4887264;29;20140;-68
2022/05/25 00:41:36;;;;;;;0.20;0.20;;;9.70;99.90;;;;;;4887944;29;20109;-68
2022/05/25 00:44:05;;;;;;;0.00;0.00;;;9.70;99.90;;;;;;4887697;29;20054;-68
2022/05/25 00:46:34;;;;;;;0.00;0.00;;;9.70;99.90;;;;;;4897746;29;20112;-68
2022/05/25 00:49:22;;;;;;;0.00;0.00;;;9.70;99.90;;;;;;4887137;29;20119;-68
2022/05/25 00:51:54;;;;;;;0.00;0.00;;;9.70;99.90;;;;;;4887786;29;20128;-68
2022/05/25 00:54:26;;;;;;;0.00;0.00;;;9.70;99.90;;;;;;4887203;29;20128;-68
2022/05/25 00:56:55;;;;;;;0.17;0.03;;;9.70;99.90;;;;;;4887945;29;20148;-68
2022/05/25 00:59:28;;;;;;;0.00;0.00;;;9.80;99.90;;;;;;4886706;29;20060;-68
2022/05/25 01:01:55;;;;;;;0.00;0.00;;;9.70;99.90;;;;;;4887636;29;20056;-68
2022/05/25 01:04:21;;;;;;;0.00;0.00;;;9.60;99.90;;;;;;4885317;29;20132;-68
2022/05/25 01:07:05;;;;;;;0.00;0.00;;;10.20;99.90;;;;;;4886531;29;20171;-68
2022/05/25 01:09:49;;;;;;;0.00;0.00;;;9.70;99.90;;;;;;4887292;29;20178;-68
2022/05/25 01:12:30;;;;;;;0.10;0.10;;;9.70;99.90;;;;;;4890154;23;20063;-59
2022/05/25 01:15:10;;;;;;;0.00;0.00;;;9.70;99.90;;;;;;4921573;29;20048;-59
2022/05/25 01:17:42;;;;;;;0.08;0.08;;;9.70;99.90;;;;;;4905498;29;20052;-59
2022/05/25 01:20:16;;;;;;;0.00;0.00;;;9.70;99.90;;;;;;4905980;29;20687;-59
2022/05/25 01:23:19;;;;;;;0.00;0.00;;;9.80;99.90;;;;;;4906606;29;20046;-60
2022/05/25 01:26:07;;;;;;;0.00;0.00;;;9.70;99.90;;;;;;4889264;29;20056;-59
2022/05/25 01:29:00;;;;;;;0.00;0.00;;;9.70;99.90;;;;;;4905983;29;20052;-59
2022/05/25 01:31:36;;;;;;;0.20;0.20;;;9.70;99.90;;;;;;4905458;29;20052;-59
2022/05/25 01:34:16;;;;;;;0.30;0.20;;;9.60;99.90;;;;;;4905356;29;20465;-59
2022/05/25 01:37:04;;;;;;;0.00;0.00;;;9.60;99.90;;;;;;4906085;29;20048;-60
2022/05/25 01:39:34;;;;;;;0.00;0.00;;;9.60;99.90;;;;;;4905712;29;20087;-59
2022/05/25 01:42:20;;;;;;;0.00;0.00;;;9.50;99.90;;;;;;4905294;29;20087;-59
2022/05/25 01:44:51;;;;;;;0.00;0.00;;;9.60;99.90;;;;;;4907809;29;20092;-60
2022/05/25 01:47:19;;;;;;;0.00;0.00;;;9.50;99.90;;;;;;4913590;29;20044;-59
2022/05/25 01:50:12;;;;;;;0.00;0.00;;;9.50;99.90;;;;;;4905195;29;20048;-59
2022/05/25 01:52:49;;;;;;;0.00;0.00;;;9.50;99.90;;;;;;4887960;29;20044;-59
2022/05/25 01:55:24;;;;;;;0.13;0.10;;;9.50;99.90;;;;;;4906275;29;20055;-59
2022/05/25 01:57:54;;;;;;;0.00;0.00;;;9.40;99.90;;;;;;4905488;29;20107;-59
2022/05/25 02:00:36;;;;;;;0.00;0.00;;;9.40;99.90;;;;;;4904069;29;20087;-59
2022/05/25 02:05:59;;;;;;;0.00;0.00;;;9.50;99.90;;;;;;4905077;29;20055;-59
2022/05/25 02:09:07;;;;;;;0.00;0.00;;;9.40;99.90;;;;;;4905385;29;20066;-59
2022/05/25 02:11:40;;;;;;;0.28;0.28;;;9.40;99.90;;;;;;4905086;29;20048;-60
2022/05/25 02:14:51;;;;;;;0.10;0.10;;;9.30;99.90;;;;;;4904632;29;20071;-58
2022/05/25 02:17:31;;;;;;;0.22;0.10;;;9.40;99.90;;;;;;4904575;29;20055;-59
2022/05/25 02:20:24;;;;;;;0.00;0.00;;;9.90;99.90;;;;;;4904627;29;20056;-59
2022/05/25 02:22:56;;;;;;;0.10;0.10;;;9.40;99.90;;;;;;4905354;29;20474;-59
2022/05/25 02:25:49;;;;;;;0.00;0.00;;;9.40;99.90;;;;;;4905296;29;20075;-58
2022/05/25 02:28:26;;;;;;;0.03;0.03;;;9.30;99.90;;;;;;4872417;29;20056;-59
2022/05/25 02:30:57;;;;;;;0.00;0.00;;;9.30;99.90;;;;;;4905204;29;20052;-59
2022/05/25 02:33:34;;;;;;;0.00;0.00;;;9.30;99.90;;;;;;4904292;29;20048;-59
2022/05/25 02:36:01;;;;;;;0.47;0.20;;;9.30;99.90;;;;;;4904728;29;20059;-59
2022/05/25 02:38:28;;;;;;;0.00;0.00;;;9.30;99.90;;;;;;4887234;29;20470;-59
2022/05/25 02:41:10;;;;;;;0.30;0.30;;;9.20;99.90;;;;;;4905074;29;20131;-59
2022/05/25 02:43:36;;;;;;;0.00;0.00;;;9.20;99.90;;;;;;4905020;29;20699;-59
2022/05/25 02:46:04;;;;;;;0.47;0.10;;;9.30;99.90;;;;;;4913048;29;20052;-59
2022/05/25 02:48:29;;;;;;;0.10;0.10;;;9.20;99.90;;;;;;4906111;29;20115;-59
2022/05/25 02:50:56;;;;;;;0.22;0.22;;;9.30;99.90;;;;;;4905281;29;20131;-59
2022/05/25 02:53:22;;;;;;;0.20;0.20;;;9.20;99.90;;;;;;4904457;29;20092;-59
2022/05/25 02:55:49;;;;;;;0.10;0.10;;;9.20;99.90;;;;;;4904812;29;20056;-60
2022/05/25 02:58:14;;;;;;;0.10;0.10;;;9.40;99.90;;;;;;4905392;29;20119;-59
2022/05/25 03:00:40;;;;;;;0.10;0.10;;;9.20;99.90;;;;;;4904828;29;20055;-59
2022/05/25 03:03:06;;;;;;;0.10;0.08;;;9.20;99.90;;;;;;4904658;29;20112;-59
2022/05/25 03:05:31;;;;;;;0.10;0.10;;;9.20;99.90;;;;;;4904416;29;20072;-59
2022/05/25 03:07:57;;;;;;;0.00;0.00;;;9.20;99.90;;;;;;4904691;29;20076;-59
2022/05/25 03:10:23;;;;;;;0.00;0.00;;;9.20;99.90;;;;;;4904280;29;20048;-61
2022/05/25 03:12:48;;;;;;;0.00;0.00;;;9.60;99.90;;;;;;4887814;29;20056;-60
2022/05/25 03:15:15;;;;;;;0.00;0.00;;;9.30;99.90;;;;;;4905437;29;20053;-59
2022/05/25 03:17:40;;;;;;;0.15;0.15;;;9.20;99.90;;;;;;4905483;29;20661;-59
2022/05/25 03:20:07;;;;;;;0.00;0.00;;;9.20;99.90;;;;;;4903669;29;20050;-59
2022/05/25 03:22:36;;;;;;;0.52;0.20;;;9.70;99.90;;;;;;4904229;29;20102;-59
2022/05/25 03:25:02;;;;;;;0.00;0.00;;;9.20;99.90;;;;;;4904771;29;20071;-60
2022/05/25 03:27:27;;;;;;;0.00;0.00;;;9.10;99.90;;;;;;4904236;29;20865;-59
2022/05/25 03:29:53;;;;;;;0.47;0.13;;;9.30;99.90;;;;;;4905051;29;20048;-59
2022/05/25 03:32:18;;;;;;;0.10;0.10;;;9.10;99.90;;;;;;4904757;29;20491;-60
2022/05/25 03:34:47;;;;;;;0.10;0.10;;;9.10;99.90;;;;;;4887245;29;20048;-60
2022/05/25 03:37:13;;;;;;;0.10;0.10;;;9.10;99.90;;;;;;4904585;29;20075;-59
2022/05/25 03:39:39;;;;;;;0.10;0.10;;;9.10;99.90;;;;;;4904522;29;20075;-60
2022/05/25 03:42:07;;;;;;;0.10;0.10;;;9.10;99.90;;;;;;4887909;29;20043;-59
2022/05/25 03:44:34;;;;;;;0.00;0.00;;;9.20;99.90;;;;;;4888091;29;20055;-60
2022/05/25 03:47:00;;;;;;;0.00;0.00;;;9.10;99.90;;;;;;4914131;29;20455;-59
2022/05/25 03:49:26;;;;;;;0.85;0.20;;;9.30;99.90;;;;;;4906614;29;20048;-60
2022/05/25 03:51:51;;;;;;;0.15;0.10;;;9.10;99.90;;;;;;4907387;29;20048;-60
2022/05/25 03:54:17;;;;;;;0.08;0.08;;;9.20;99.90;;;;;;4907817;29;20068;-59
2022/05/25 03:56:43;;;;;;;0.00;0.00;;;9.10;99.90;;;;;;4908543;29;20060;-59
2022/05/25 03:59:08;;;;;;;0.03;0.03;;;9.10;99.90;;;;;;4908091;29;20506;-59
2022/05/25 04:01:35;;;;;;;0.10;0.10;;;9.20;99.90;;;;;;4905771;29;20043;-59
2022/05/25 04:04:01;;;;;;;0.45;0.45;;;9.20;99.90;;;;;;4906860;29;20632;-59
2022/05/25 04:06:27;;;;;;;0.20;0.20;;;9.10;99.90;;;;;;4890554;29;20172;-59
2022/05/25 04:08:53;;;;;;;0.10;0.10;;;9.20;99.90;;;;;;4907359;29;20056;-59
2022/05/25 04:11:18;;;;;;;0.10;0.10;;;9.20;99.90;;;;;;4907367;29;20491;-59
2022/05/25 04:13:45;;;;;;;0.85;0.25;;;9.30;99.90;;;;;;4907442;29;20060;-59
2022/05/25 04:16:10;;;;;;;0.00;0.00;;;9.20;99.90;;;;;;4907332;29;20040;-59
2022/05/25 04:18:36;;;;;;;0.38;0.25;;;9.30;99.90;;;;;;4905888;29;20052;-59
2022/05/25 04:21:02;;;;;;;0.20;0.20;;;9.30;99.90;;;;;;4907399;29;20052;-59
2022/05/25 04:23:28;;;;;;;1.02;0.52;;;9.30;99.90;;;;;;4906033;29;20088;-59
2022/05/25 04:25:54;;;;;;;0.00;0.00;;;9.30;99.90;;;;;;4907154;29;20207;-59
2022/05/25 04:28:20;;;;;;;0.22;0.22;;;9.30;99.90;;;;;;4906639;29;20178;-59
2022/05/25 04:30:46;;;;;;;0.20;0.20;;;9.40;99.90;;;;;;4907276;29;20518;-59
2022/05/25 04:33:13;;;;;;;0.20;0.10;;;9.40;99.90;;;;;;4907077;29;20047;-59
2022/05/25 04:35:40;;;;;;;0.10;0.10;;;9.40;99.90;;;;;;4906584;29;20051;-60
2022/05/25 04:38:06;;;;;;;0.00;0.00;;;9.50;99.90;;;;;;4890061;29;20377;-59
2022/05/25 04:40:41;;;;;;;0.20;0.20;;;9.70;99.90;;;;;;4906643;29;20048;-59
2022/05/25 04:43:13;;;;;;;0.13;0.13;;;9.60;99.90;;;;;;4906531;29;20067;-60
2022/05/25 04:45:41;;;;;;;0.47;0.20;;;9.80;99.90;;;;;;4912201;29;20179;-60
2022/05/25 04:48:07;;;;;;;0.10;0.10;;;10.20;99.90;;;;;;4911341;29;20043;-59
2022/05/25 04:50:36;;;;;;;0.00;0.00;;;10.50;99.90;;;;;;4906390;29;20186;-59
2022/05/25 04:53:03;;;;;;;0.38;0.38;;;10.70;99.90;;;;;;4905700;29;20524;-59
2022/05/25 04:58:33;;;;;;;3.40;0.90;;;11.00;99.90;;;;;;4906996;29;20116;-59
2022/05/25 05:00:59;;;;;;;0.75;0.20;;;11.20;99.90;;;;;;4905983;29;20647;-59
2022/05/25 05:03:26;;;;;;;0.38;0.25;;;11.10;99.90;;;;;;4905347;29;20060;-59
2022/05/25 05:05:53;;;;;;;0.20;0.20;;;11.30;99.90;;;;;;4906596;29;20040;-60
2022/05/25 05:08:19;;;;;;;0.20;0.20;;;11.30;99.90;;;;;;4889411;29;20074;-60
2022/05/25 05:10:45;;;;;;;0.00;0.00;;;11.50;99.90;;;;;;4906079;29;20139;-60
2022/05/25 05:13:12;;;;;;;0.25;0.10;;;11.60;99.90;;;;;;4906470;29;20056;-60
2022/05/25 05:15:42;;;;;;;0.10;0.10;;;11.50;99.90;;;;;;4906397;29;20063;-59
2022/05/25 05:18:08;;;;;;;0.10;0.10;;;11.60;99.90;;;;;;4905537;29;20047;-64
2022/05/25 05:20:34;;;;;;;0.00;0.00;;;11.70;99.90;;;;;;4905959;29;20055;-61
2022/05/25 05:23:00;;;;;;;0.00;0.00;;;11.90;99.90;;;;;;4904904;29;20040;-60
2022/05/25 05:25:26;;;;;;;0.10;0.00;;;12.00;99.90;;;;;;4905839;29;20547;-60
2022/05/25 05:27:52;;;;;;;0.10;0.10;;;11.90;99.90;;;;;;4905822;29;20044;-60
2022/05/25 05:30:21;;;;;;;0.20;0.20;;;12.10;99.90;;;;;;4905899;29;20179;-61
2022/05/25 05:32:47;;;;;;;0.00;0.00;;;12.00;99.90;;;;;;4888951;29;20063;-61
2022/05/25 05:35:13;;;;;;;0.10;0.03;;;12.40;99.90;;;;;;4905338;29;20100;-60
2022/05/25 05:37:45;;;;;;;0.30;0.20;;;12.60;99.90;;;;;;4905881;29;20048;-60
2022/05/25 05:40:12;;;;;;;0.13;0.10;;;12.60;99.90;;;;;;4906599;29;20056;-60
2022/05/25 05:42:39;;;;;;;0.00;0.00;;;12.80;99.90;;;;;;4905841;29;20104;-60
2022/05/25 05:45:27;;;;;;;0.00;0.00;;;13.00;99.90;;;;;;4908418;29;20390;-61
2022/05/25 05:48:06;;;;;;;0.00;0.00;;;13.20;99.90;;;;;;4917539;29;20052;-61
2022/05/25 05:50:34;;;;;;;0.00;0.00;;;13.40;99.90;;;;;;4924552;29;20048;-60
2022/05/25 05:52:59;;;;;;;0.00;0.00;;;13.50;99.90;;;;;;4924847;29;20044;-60
2022/05/25 05:55:25;;;;;;;0.32;0.10;;;13.50;99.90;;;;;;4906772;29;20059;-60
2022/05/25 05:57:51;;;;;;;0.10;0.10;;;13.60;99.90;;;;;;4924453;29;20250;-61
2022/05/25 06:00:17;;;;;;;0.00;0.00;;;13.20;99.90;;;;;;4924674;29;20514;-61
2022/05/25 06:02:43;;;;;;;0.32;0.10;;;13.40;99.90;;;;;;4908025;29;20071;-61
2022/05/25 06:05:10;;;;;;;0.00;0.00;;;13.50;99.90;;;;;;4890645;29;20407;-60
2022/05/25 06:07:37;;;;;;;0.00;0.00;;;13.70;99.90;;;;;;4924482;29;20108;-61
2022/05/25 06:10:04;;;;;;;0.40;0.22;;;13.80;99.90;;;;;;4907100;29;20047;-61
2022/05/25 06:12:33;;;;;;;0.10;0.10;;;14.00;99.90;;;;;;4923432;29;20064;-60
2022/05/25 06:14:59;;;;;;;0.00;0.00;;;13.90;99.90;;;;;;4924124;29;20132;-61
2022/05/25 06:20:10;;;;;;;0.00;0.00;;;13.90;99.90;;;;;;4923739;29;20103;-60
2022/05/25 06:22:36;;;;;;;0.00;0.00;;;13.90;99.90;;;;;;4924231;29;20542;-58
2022/05/25 06:25:03;;;;;;;0.00;0.00;;;14.00;99.90;;;;;;4924300;29;20051;-59
2022/05/25 06:27:29;;;;;;;0.00;0.00;;;14.40;99.90;;;;;;4923622;29;20817;-59
2022/05/25 06:29:55;;;;;;;0.05;0.05;;;14.50;99.90;;;;;;4923912;29;20059;-60
2022/05/25 06:32:27;;;;;;;0.15;0.10;;;14.80;99.90;;;;;;4923917;29;20048;-61
2022/05/25 06:34:53;;;;;;;0.00;0.00;;;14.90;99.90;;;;;;4922938;29;20036;-60
2022/05/25 06:37:23;;;;;;;0.20;0.20;;;14.90;99.90;;;;;;4924018;29;20182;-62
2022/05/25 06:39:50;;;;;;;0.00;0.00;;;15.10;99.90;;;;;;4923942;29;20047;-61
2022/05/25 06:42:15;;;;;;;0.20;0.10;;;14.90;99.90;;;;;;4907221;29;20043;-63
2022/05/25 06:44:44;;;;;;;0.00;0.00;;;15.00;99.90;;;;;;4922202;29;20515;-62
2022/05/25 06:47:17;;;;;;;0.10;0.10;;;15.00;99.90;;;;;;4913592;29;20128;-61
2022/05/25 06:49:43;;;;;;;0.10;0.10;;;15.30;99.90;;;;;;4904796;29;20048;-62
2022/05/25 06:52:10;;;;;;;0.10;0.10;;;15.60;99.90;;;;;;4904795;29;20091;-59
2022/05/25 06:54:37;;;;;;;0.10;0.10;;;15.50;99.90;;;;;;4904930;29;20063;-58
2022/05/25 06:57:03;;;;;;;0.05;0.00;;;15.80;99.90;;;;;;4904646;29;20103;-58
2022/05/25 06:59:28;;;;;;;0.10;0.10;;;15.90;99.90;;;;;;4903865;29;20219;-58
2022/05/25 07:01:54;;;;;;;0.00;0.00;;;15.60;99.90;;;;;;4904460;29;20633;-59
2022/05/25 07:04:20;;;;;;;0.10;0.10;;;15.50;99.90;;;;;;4903981;29;20110;-60
2022/05/25 07:06:45;;;;;;;0.40;0.30;;;15.40;99.90;;;;;;4905245;29;20079;-60
2022/05/25 07:09:12;;;;;;;0.00;0.00;;;15.50;99.90;;;;;;4904174;29;20048;-58
2022/05/25 07:11:39;;;;;;;0.15;0.10;;;15.50;99.90;;;;;;4904422;29;20650;-59
2022/05/25 07:14:05;;;;;;;0.00;0.00;;;15.40;99.90;;;;;;4887266;29;20419;-59
2022/05/25 07:16:31;;;;;;;0.00;0.00;;;15.50;99.90;;;;;;4903713;29;20055;-59
2022/05/25 07:18:57;;;;;;;0.32;0.30;;;15.60;99.90;;;;;;4904071;29;20052;-59
2022/05/25 07:21:26;;;;;;;0.10;0.00;;;15.80;99.90;;;;;;4887331;29;20490;-59
2022/05/25 07:23:54;;;;;;;0.03;0.03;;;15.90;99.90;;;;;;4906277;29;20048;-59
2022/05/25 07:26:21;;;;;;;0.10;0.03;;;15.50;99.90;;;;;;4907691;29;20107;-59
2022/05/25 07:28:47;;;;;;;0.00;0.00;;;15.70;99.90;;;;;;4908026;29;20044;-60
2022/05/25 07:31:24;;;;;;;0.10;0.10;;;15.90;99.90;;;;;;4908197;29;20044;-59
2022/05/25 07:33:57;;;;;;;0.90;0.20;;;15.60;99.90;;;;;;4907263;29;20051;-59
2022/05/25 07:36:24;;;;;;;0.00;0.00;;;15.60;99.90;;;;;;4907645;29;20052;-60
2022/05/25 07:38:52;;;;;;;0.00;0.00;;;15.50;99.90;;;;;;4907468;29;20048;-59
2022/05/25 07:41:18;;;;;;;0.13;0.13;;;16.00;99.90;;;;;;4890961;29;20483;-60
2022/05/25 07:43:44;;;;;;;0.00;0.00;;;15.90;99.90;;;;;;4908398;29;20080;-60
2022/05/25 07:46:10;;;;;;;0.00;0.00;;;16.00;99.90;;;;;;4917341;29;20044;-60
2022/05/25 07:48:36;;;;;;;0.10;0.10;;;16.00;99.90;;;;;;4906952;29;20059;-61
2022/05/25 07:51:03;;;;;;;0.00;0.00;;;15.60;99.90;;;;;;4890605;29;20463;-61
2022/05/25 07:56:16;;;;;;;0.00;0.00;;;15.80;99.90;;;;;;4908224;29;20400;-60
2022/05/25 07:58:41;;;;;;;0.00;0.00;;;16.00;99.90;;;;;;4907788;29;20052;-61
2022/05/25 08:01:13;;;;;;;0.00;0.00;;;16.00;99.90;;;;;;4907207;29;20480;-60
2022/05/25 08:06:23;;;;;;;0.10;0.00;;;16.10;99.90;;;;;;4907586;29;20467;-60
2022/05/25 08:08:51;;;;;;;0.43;0.43;;;16.00;99.90;;;;;;4905749;29;20044;-60
2022/05/25 08:11:20;;;;;;;0.00;0.00;;;16.00;99.90;;;;;;4907337;29;20048;-60
2022/05/25 08:13:51;;;;;;;0.10;0.10;;;16.00;99.90;;;;;;4887153;29;20096;-61
2022/05/25 08:16:17;;;;;;;0.20;0.20;;;16.30;99.90;;;;;;4887382;29;20053;-58
2022/05/25 08:18:42;;;;;;;0.00;0.00;;;16.50;99.90;;;;;;4886823;29;20096;-60
2022/05/25 08:21:08;;;;;;;0.10;0.10;;;16.80;99.90;;;;;;4888335;29;20721;-59
2022/05/25 08:23:34;;;;;;;0.00;0.00;;;16.70;99.90;;;;;;4901765;29;20048;-60
2022/05/25 08:26:00;;;;;;;0.00;0.00;;;16.80;99.90;;;;;;4888399;29;20674;-61
2022/05/25 08:28:26;;;;;;;0.05;0.05;;;16.60;99.90;;;;;;4888174;29;20056;-61
2022/05/25 08:30:52;;;;;;;0.20;0.20;;;16.40;99.90;;;;;;4888293;29;20083;-60
2022/05/25 08:33:20;;;;;;;0.03;0.03;;;16.50;99.90;;;;;;4886876;29;20454;-61
2022/05/25 08:35:47;;;;;;;0.00;0.00;;;16.50;99.90;;;;;;4887153;29;20041;-63
2022/05/25 08:38:13;;;;;;;0.52;0.00;;;16.60;99.90;;;;;;4888557;29;20075;-60
2022/05/25 08:40:40;;;;;;;0.00;0.00;;;16.60;99.90;;;;;;4887411;29;20044;-60
2022/05/25 08:43:22;;;;;;;0.20;0.03;;;16.70;99.90;;;;;;4888050;29;20060;-61
2022/05/25 08:45:54;;;;;;;0.00;0.00;;;16.80;99.90;;;;;;4894530;29;20090;-61
2022/05/25 08:48:22;;;;;;;0.00;0.00;;;17.30;99.90;;;;;;4890459;29;20612;-60
2022/05/25 08:51:13;;;;;;;0.00;0.00;;;17.40;99.90;;;;;;4887965;29;20052;-61
2022/05/25 08:53:39;;;;;;;0.00;0.00;;;17.40;99.90;;;;;;4880843;29;20143;-60
2022/05/25 08:56:22;;;;;;;1.90;0.15;;;17.40;99.90;;;;;;4887423;29;20061;-63
2022/05/25 08:58:58;;;;;;;0.10;0.10;;;17.10;99.90;;;;;;4886923;29;20127;-64
2022/05/25 09:01:48;;;;;;;0.00;0.00;;;16.80;99.90;;;;;;4887240;29;20056;-65
2022/05/25 09:04:29;;;;;;;0.10;0.10;;;16.90;99.90;;;;;;4886508;29;20044;-65
2022/05/25 09:07:03;;;;;;;0.10;0.05;;;17.50;99.90;;;;;;4887328;29;20058;-65
2022/05/25 09:09:44;;;;;;;0.00;0.00;;;17.30;99.90;;;;;;4886751;29;20456;-64
2022/05/25 09:12:35;;;;;;;0.00;0.00;;;17.70;99.90;;;;;;4887733;29;20308;-64
2022/05/25 09:15:13;;;;;;;0.22;0.10;;;18.00;99.90;;;;;;4906021;29;20144;-65
2022/05/25 09:17:53;;;;;;;0.10;0.10;;;17.80;99.90;;;;;;4905494;29;20048;-65
2022/05/25 09:20:23;;;;;;;0.43;0.10;;;17.40;99.90;;;;;;4889524;29;20074;-64
2022/05/25 09:22:50;;;;;;;0.00;0.00;;;17.60;99.90;;;;;;4889011;29;20051;-65
2022/05/25 09:25:17;;;;;;;0.00;0.00;;;17.50;99.90;;;;;;4888985;29;20060;-64
2022/05/25 09:27:53;;;;;;;0.10;0.00;;;17.70;99.90;;;;;;4888927;29;20522;-65
2022/05/25 09:30:22;;;;;;;0.00;0.00;;;18.10;99.90;;;;;;4905884;29;20060;-64
2022/05/25 09:32:59;;;;;;;0.00;0.00;;;17.90;99.90;;;;;;4904245;29;20419;-64
2022/05/25 09:35:40;;;;;;;0.17;0.10;;;17.70;99.90;;;;;;4905668;29;20131;-64
2022/05/25 09:38:13;;;;;;;0.25;0.15;;;17.40;99.90;;;;;;4905025;29;20082;-64
2022/05/25 09:40:46;;;;;;;0.00;0.00;;;17.20;99.90;;;;;;4905334;29;20444;-64
2022/05/25 09:43:21;;;;;;;0.00;0.00;;;17.20;99.90;;;;;;4905739;29;20107;-65
2022/05/25 09:45:56;;;;;;;0.00;0.00;;;17.10;99.90;;;;;;4911155;29;20039;-64
2022/05/25 09:48:22;;;;;;;0.10;0.10;;;17.20;99.90;;;;;;4907673;29;20052;-64
2022/05/25 09:51:04;;;;;;;0.00;0.00;;;17.20;99.90;;;;;;4905238;29;20115;-65
2022/05/25 09:53:41;;;;;;;0.10;0.10;;;17.30;99.90;;;;;;4905349;29;20055;-64
2022/05/25 09:56:17;;;;;;;0.00;0.00;;;17.10;99.90;;;;;;4905956;29;20384;-64
2022/05/25 09:58:54;;;;;;;0.45;0.43;;;17.20;99.90;;;;;;4888351;29;20052;-65
2022/05/25 10:01:23;;;;;;;0.00;0.00;;;17.20;99.90;;;;;;4905467;29;20048;-64
2022/05/25 10:03:50;;;;;;;0.00;0.00;;;17.30;99.90;;;;;;4904592;29;20103;-65
2022/05/25 10:06:44;;;;;;;0.10;0.10;;;17.60;99.90;;;;;;4905182;29;20111;-64
2022/05/25 10:09:28;;;;;;;0.00;0.00;;;17.60;99.90;;;;;;4905079;29;20103;-64
2022/05/25 10:11:59;;;;;;;0.07;0.07;;;17.90;99.90;;;;;;4905266;29;20040;-64
2022/05/25 10:14:30;;;;;;;0.10;0.10;;;17.70;99.90;;;;;;4904243;29;20296;-65
2022/05/25 10:17:10;;;;;;;0.17;0.17;;;17.70;99.90;;;;;;4904678;29;20135;-65
2022/05/25 10:19:48;;;;;;;0.00;0.00;;;17.50;99.90;;;;;;4888309;29;20078;-65
2022/05/25 10:22:44;;;;;;;0.00;0.00;;;17.30;99.90;;;;;;4904261;29;20258;-65
2022/05/25 10:25:22;;;;;;;0.00;0.00;;;17.30;99.90;;;;;;4904425;29;20408;-65
2022/05/25 10:27:48;;;;;;;0.00;0.00;;;17.30;99.90;;;;;;4904977;29;20258;-65
2022/05/25 10:39:28;;;;;;;0.00;0.00;;;18.00;99.90;;;;;;4904911;29;20059;-64
2022/05/25 10:42:16;;;;;;;0.15;0.10;;;17.90;99.90;;;;;;4904710;29;20391;-65
2022/05/25 10:44:46;;;;;;;0.00;0.00;;;18.00;99.90;;;;;;4919590;29;20052;-65
2022/05/25 10:47:34;;;;;;;0.10;0.10;;;17.90;99.90;;;;;;4912887;29;20131;-64
2022/05/25 10:50:03;;;;;;;0.00;0.00;;;18.00;99.90;;;;;;4904604;29;20056;-65
2022/05/25 10:52:36;;;;;;;0.00;0.00;;;17.90;99.90;;;;;;4904917;29;20075;-65
2022/05/25 10:55:05;;;;;;;0.57;0.57;;;17.80;99.90;;;;;;4904441;29;20091;-65
2022/05/25 10:57:45;;;;;;;0.10;0.10;;;17.70;99.90;;;;;;4904769;29;20044;-65
2022/05/25 11:00:19;;;;;;;0.03;0.03;;;17.70;99.90;;;;;;4908598;29;20100;-65
2022/05/25 11:03:07;;;;;;;0.00;0.00;;;17.30;99.90;;;;;;4907979;29;20048;-65
2022/05/25 11:06:00;;;;;;;0.10;0.10;;;17.20;99.90;;;;;;4907510;29;20152;-64
2022/05/25 11:08:50;;;;;;;0.75;0.10;;;17.00;99.90;;;;;;4908249;29;20067;-62
2022/05/25 11:11:30;;;;;;;0.10;0.10;;;17.00;99.90;;;;;;4908313;29;20048;-65
2022/05/25 11:14:30;;;;;;;0.00;0.00;;;17.20;99.90;;;;;;4907974;29;20407;-64
2022/05/25 11:17:35;;;;;;;0.98;0.63;;;17.40;99.90;;;;;;4907813;29;20055;-65
2022/05/25 11:20:10;;;;;;;;;;;17.50;99.90;;;;;;4908634;29;20415;-65
2022/05/25 11:23:03;;;;;;;0.22;0.22;;;17.70;99.90;;;;;;4907284;29;19927;-64
2022/05/25 11:25:46;;;;;;;0.10;0.10;;;18.00;99.90;;;;;;4907984;29;20186;-65
2022/05/25 11:28:41;;;;;;;0.35;0.10;;;18.00;99.90;;;;;;4907318;29;20048;-65
2022/05/25 11:31:18;;;;;;;0.10;0.10;;;17.90;99.90;;;;;;4897340;29;20111;-65
2022/05/25 11:34:04;;;;;;;0.00;0.00;;;17.50;99.90;;;;;;4907259;29;20055;-65
2022/05/25 11:36:37;;;;;;;0.35;0.22;;;17.60;99.90;;;;;;4906948;29;20100;-66
2022/05/25 11:39:14;;;;;;;0.03;0.03;;;17.70;99.90;;;;;;4907858;29;20413;-65
2022/05/25 11:41:57;;;;;;;0.10;0.05;;;17.70;99.90;;;;;;4907739;29;20135;-65
2022/05/25 11:44:57;;;;;;;0.00;0.00;;;17.80;99.90;;;;;;4890920;29;20055;-65
2022/05/25 11:47:35;;;;;;;0.00;0.00;;;17.80;99.90;;;;;;4914878;29;20052;-65
2022/05/25 11:50:42;;;;;;;0.22;0.08;;;18.00;99.90;;;;;;4907738;29;20987;-64
2022/05/25 11:53:37;;;;;;;0.15;0.10;;;18.60;99.90;;;;;;4908035;29;20103;-65
2022/05/25 11:56:30;;;;;;;0.00;0.00;;;18.70;99.90;;;;;;4907448;29;20052;-65
2022/05/25 11:59:14;;;;;;;0.00;0.00;;;18.40;99.90;;;;;;4906979;29;20056;-65
2022/05/25 12:01:58;;;;;;;0.00;0.00;;;18.20;99.90;;;;;;4907631;29;20044;-64
2022/05/25 12:04:57;;;;;;;0.00;0.00;;;18.50;99.90;;;;;;4890374;29;20048;-64
2022/05/25 12:07:46;;;;;;;0.10;0.10;;;18.70;99.90;;;;;;4905205;29;20052;-65
2022/05/25 12:10:18;;;;;;;0.00;0.00;;;18.20;99.90;;;;;;4896611;29;20503;-68
2022/05/25 12:13:09;;;;;;;0.30;0.20;;;18.10;99.90;;;;;;4889265;29;20056;-66
2022/05/25 12:16:28;;;;;;;0.00;0.00;;;18.10;99.90;;;;;;4906896;29;20861;-64
2022/05/25 12:19:05;;;;;;;0.00;0.00;;;17.90;99.90;;;;;;4858771;29;20106;-64
2022/05/25 12:21:36;;;;;;;0.10;0.10;;;17.80;99.90;;;;;;4906946;29;20040;-64
2022/05/25 12:24:10;;;;;;;0.00;0.00;;;17.60;99.90;;;;;;4906110;29;20459;-64
2022/05/25 12:26:37;;;;;;;0.37;0.33;;;17.40;99.90;;;;;;4889147;29;20059;-64
2022/05/25 12:29:15;;;;;;;0.08;0.08;;;17.30;99.90;;;;;;4907011;29;20448;-64
2022/05/25 12:31:43;;;;;;;0.00;0.00;;;17.00;99.90;;;;;;4907154;29;20056;-64
2022/05/25 12:34:18;;;;;;;0.00;0.00;;;16.80;99.90;;;;;;4905948;29;20411;-64
2022/05/25 12:36:44;;;;;;;0.10;0.10;;;16.30;99.90;;;;;;4906895;29;20098;-64
2022/05/25 12:39:10;;;;;;;0.63;0.28;;;16.10;99.90;;;;;;4890252;29;20503;-64
2022/05/25 12:41:39;;;;;;;0.00;0.00;;;15.80;99.90;;;;;;4905622;29;20040;-64
2022/05/25 12:49:37;;;;;;;0.00;0.00;;;16.00;99.90;;;;;;4906686;29;20056;-65
2022/05/25 12:52:25;;;;;;;0.25;0.05;;;16.40;99.90;;;;;;4889331;29;20431;-65
2022/05/25 12:54:52;;;;;;;0.00;0.00;;;16.80;99.90;;;;;;4906407;29;20179;-65
2022/05/25 12:57:55;;;;;;;0.00;0.00;;;16.90;99.90;;;;;;4906356;29;20139;-65
2022/05/25 13:00:32;;;;;;;0.00;0.00;;;17.00;99.90;;;;;;4888926;29;20044;-65
2022/05/25 13:03:19;;;;;;;0.43;0.13;;;17.40;99.90;;;;;;4905601;29;20048;-65
2022/05/25 13:05:55;;;;;;;0.00;0.00;;;17.40;99.90;;;;;;4906713;29;20048;-64
2022/05/25 13:08:46;;;;;;;0.00;0.00;;;17.40;99.90;;;;;;4906066;29;20052;-65
2022/05/25 13:11:41;;;;;;;0.10;0.10;;;17.20;99.90;;;;;;4906102;29;20436;-65
2022/05/25 13:14:34;;;;;;;0.00;0.00;;;17.40;99.90;;;;;;4910207;29;20063;-61
2022/05/25 13:17:00;;;;;;;0.00;0.00;;;17.50;99.90;;;;;;4909849;29;20519;-65
2022/05/25 13:19:46;;;;;;;0.00;0.00;;;17.50;99.90;;;;;;4912105;29;20047;-66
2022/05/25 13:22:17;;;;;;;0.10;0.10;;;17.50;99.90;;;;;;4911899;29;20425;-66
2022/05/25 13:25:01;;;;;;;0.35;0.20;;;17.60;99.90;;;;;;4912146;29;20096;-66
2022/05/25 13:27:32;;;;;;;0.57;0.10;;;17.90;99.90;;;;;;4911402;29;20134;-66
2022/05/25 13:30:13;;;;;;;0.20;0.08;;;17.50;99.90;;;;;;4911716;29;20035;-66
2022/05/25 13:33:00;;;;;;;0.10;0.10;;;17.70;99.90;;;;;;4909801;29;20159;-67
2022/05/25 13:35:32;;;;;;;0.47;0.20;;;17.70;99.90;;;;;;4911834;29;20167;-64
2022/05/25 13:38:06;;;;;;;0.00;0.00;;;17.60;99.90;;;;;;4911116;29;20051;-64
2022/05/25 13:40:41;;;;;;;0.08;0.08;;;17.50;99.90;;;;;;4911147;29;20560;-65
2022/05/25 13:43:22;;;;;;;3.00;0.50;;;17.60;99.90;;;;;;4885970;29;20043;-64
2022/05/25 13:45:48;;;;;;;0.00;0.00;;;17.70;99.90;;;;;;4911730;29;20047;-65
2022/05/25 13:48:16;;;;;;;0.15;0.15;;;17.80;99.90;;;;;;4893823;29;20044;-65
2022/05/25 13:50:52;;;;;;;0.17;0.10;;;18.00;99.90;;;;;;4893644;29;20083;-66
2022/05/25 13:53:37;;;;;;;0.00;0.00;;;17.90;99.90;;;;;;4910338;29;20234;-66